Time;durP1;ratioP1;P1;durP2;ratioP2;P2;SDS_P1;SDS_P2;PMS_P1;PMS_P2;Temp;Humidity;BMP_temperature;BMP_pressure;BME280_temperature;BME280_humidity;BME280_pressure;Samples;Min_cycle;Max_cycle;Signal;HPM_P1;HPM_P2
2021/01/01 00:50:06;;;;;;;;;;;;;;;18.54;58.82;99898.44;4959435;28;1402;-69
2021/01/01 00:52:35;;;;;;;;;;;;;;;18.45;59.70;99892.94;4965782;28;1415;-66
2021/01/01 00:55:02;;;;;;;;;;;;;;;18.37;59.79;99900.50;4968582;28;1205;-67
2021/01/01 00:57:48;;;;;;;;;;;;;;;18.32;58.89;99897.34;4967838;28;1903;-68
2021/01/01 01:00:36;;;;;;;;;;;;;;;18.36;58.62;99894.38;4969528;28;1194;-68
2021/01/01 01:03:02;;;;;;;;;;;;;;;18.36;58.61;99890.94;4970094;28;1317;-67
2021/01/01 01:05:28;;;;;;;;;;;;;;;18.30;58.92;99891.34;4967310;28;1374;-68
2021/01/01 01:07:55;;;;;;;;;;;;;;;18.25;58.81;99890.78;4968891;28;1237;-69
2021/01/01 01:10:21;;;;;;;;;;;;;;;18.21;58.87;99884.88;4976037;28;1014;-69
2021/01/01 01:12:47;;;;;;;;;;;;;;;18.18;58.81;99894.81;4988428;28;1254;-69
2021/01/01 01:15:13;;;;;;;;;;;;;;;18.16;58.56;99892.28;4988318;28;1147;-69
2021/01/01 01:17:40;;;;;;;;;;;;;;;18.14;58.88;99898.59;4988210;28;1930;-69
2021/01/01 01:20:07;;;;;;;;;;;;;;;18.09;58.70;99896.25;4986763;28;1168;-69
2021/01/01 01:22:33;;;;;;;;;;;;;;;18.07;58.69;99898.16;4975247;28;1327;-69
2021/01/01 01:25:00;;;;;;;;;;;;;;;18.05;58.70;99896.59;4972044;28;1039;-68
2021/01/01 01:27:26;;;;;;;;;;;;;;;18.00;58.76;99896.88;4972450;28;1210;-68
2021/01/01 01:29:52;;;;;;;;;;;;;;;17.96;58.90;99893.59;4975749;28;1295;-69
2021/01/01 01:32:19;;;;;;;;;;;;;;;17.94;58.92;99899.91;4991763;28;1233;-68
2021/01/01 01:34:45;;;;;;;;;;;;;;;17.92;58.72;99900.03;4991399;28;958;-69
2021/01/01 01:37:11;;;;;;;;;;;;;;;17.89;58.80;99896.75;4973676;28;1907;-69
2021/01/01 01:39:38;;;;;;;;;;;;;;;17.87;59.02;99894.22;4991202;28;1539;-68
2021/01/01 01:42:04;;;;;;;;;;;;;;;17.85;58.84;99890.84;4991621;28;1285;-67
2021/01/01 01:44:31;;;;;;;;;;;;;;;17.85;58.89;99887.34;4991738;28;1044;-69
2021/01/01 01:46:57;;;;;;;;;;;;;;;17.83;58.94;99884.00;4991597;28;1264;-69
2021/01/01 01:49:23;;;;;;;;;;;;;;;17.82;58.90;99888.41;5020482;28;1351;-69
2021/01/01 01:51:52;;;;;;;;;;;;;;;17.79;58.90;99883.34;5031074;28;1284;-69
2021/01/01 01:54:18;;;;;;;;;;;;;;;17.77;58.92;99882.63;5031530;28;1141;-69
2021/01/01 01:56:45;;;;;;;;;;;;;;;17.74;59.09;99888.09;5031235;28;1240;-69
2021/01/01 01:59:14;;;;;;;;;;;;;;;17.73;58.85;99873.22;5013658;28;1918;-69
2021/01/01 02:01:41;;;;;;;;;;;;;;;17.72;58.70;99875.97;5031045;28;1307;-69
2021/01/01 02:04:08;;;;;;;;;;;;;;;17.74;58.99;99871.44;5031390;28;1088;-69
2021/01/01 02:06:34;;;;;;;;;;;;;;;17.73;59.19;99870.59;5013243;28;1304;-69
2021/01/01 02:09:01;;;;;;;;;;;;;;;17.70;59.03;99868.16;5031260;28;879;-69
2021/01/01 02:11:28;;;;;;;;;;;;;;;17.71;58.93;99858.47;5030893;28;843;-69
2021/01/01 02:13:56;;;;;;;;;;;;;;;17.71;58.85;99866.38;5013217;28;1230;-69
2021/01/01 02:16:22;;;;;;;;;;;;;;;17.71;58.86;99861.94;5030825;28;794;-69
2021/01/01 02:18:48;;;;;;;;;;;;;;;17.72;58.66;99860.97;5030734;28;1983;-69
2021/01/01 02:21:16;;;;;;;;;;;;;;;17.68;58.79;99856.88;5012790;28;1090;-69
2021/01/01 02:23:43;;;;;;;;;;;;;;;17.70;58.70;99862.88;5030440;28;1228;-69
2021/01/01 02:26:10;;;;;;;;;;;;;;;17.66;58.93;99866.66;5030603;28;770;-69
2021/01/01 02:28:36;;;;;;;;;;;;;;;17.69;58.79;99865.63;5030741;28;1320;-69
2021/01/01 02:31:03;;;;;;;;;;;;;;;17.68;58.74;99856.03;5012629;28;1362;-69
2021/01/01 02:33:29;;;;;;;;;;;;;;;17.66;58.77;99850.03;5030334;28;1232;-69
2021/01/01 02:35:55;;;;;;;;;;;;;;;17.68;58.66;99853.41;5030598;28;856;-69
2021/01/01 02:38:22;;;;;;;;;;;;;;;17.66;58.70;99848.22;5013030;28;1910;-69
2021/01/01 02:41:23;;;;;;;;;;;;;;;17.62;58.50;99852.03;5030532;28;1091;-69
2021/01/01 02:43:49;;;;;;;;;;;;;;;17.63;58.61;99851.06;4988376;28;1359;-69
2021/01/01 02:46:15;;;;;;;;;;;;;;;17.62;58.78;99851.16;5030289;28;775;-69
2021/01/01 02:48:46;;;;;;;;;;;;;;;17.64;58.86;99846.63;5030216;28;1463;-68
2021/01/01 02:51:12;;;;;;;;;;;;;;;17.63;58.66;99840.53;5011919;28;1419;-70
2021/01/01 02:53:38;;;;;;;;;;;;;;;17.63;58.66;99837.88;5028645;28;1217;-70
2021/01/01 02:56:06;;;;;;;;;;;;;;;17.61;58.80;99839.78;5028777;28;1370;-69
2021/01/01 02:58:32;;;;;;;;;;;;;;;17.61;58.82;99842.41;5029822;28;1985;-68
2021/01/01 03:00:59;;;;;;;;;;;;;;;17.59;58.75;99839.06;5030104;28;787;-69
2021/01/01 03:03:25;;;;;;;;;;;;;;;17.60;58.69;99842.53;5030031;28;1319;-68
2021/01/01 03:05:51;;;;;;;;;;;;;;;17.59;58.70;99840.84;5028378;28;1407;-68
2021/01/01 03:08:17;;;;;;;;;;;;;;;17.58;58.93;99842.63;5029764;28;1229;-68
2021/01/01 03:10:43;;;;;;;;;;;;;;;17.55;58.96;99842.81;5029755;28;782;-68
2021/01/01 03:13:09;;;;;;;;;;;;;;;17.55;58.78;99842.81;5029656;28;1235;-68
2021/01/01 03:15:36;;;;;;;;;;;;;;;17.54;59.23;99845.53;5011646;28;1642;-69
2021/01/01 03:18:02;;;;;;;;;;;;;;;17.56;58.97;99841.03;5011474;28;1918;-68
2021/01/01 03:20:29;;;;;;;;;;;;;;;17.56;58.65;99841.91;5011639;28;1196;-69
2021/01/01 03:22:55;;;;;;;;;;;;;;;17.52;59.00;99837.72;5029404;28;1402;-68
2021/01/01 03:25:22;;;;;;;;;;;;;;;17.53;58.78;99835.94;5029379;28;731;-69
2021/01/01 03:27:48;;;;;;;;;;;;;;;17.54;59.04;99841.09;5029306;28;1351;-68
2021/01/01 03:30:15;;;;;;;;;;;;;;;17.53;58.99;99838.56;5028026;28;1206;-68
2021/01/01 03:32:41;;;;;;;;;;;;;;;17.53;58.94;99833.31;5029672;28;1229;-69
2021/01/01 03:35:08;;;;;;;;;;;;;;;17.50;59.19;99823.84;5029999;28;1034;-69
2021/01/01 03:37:35;;;;;;;;;;;;;;;17.50;59.01;99818.56;5029191;28;1910;-69
2021/01/01 03:40:02;;;;;;;;;;;;;;;17.49;58.80;99828.25;5029740;28;1222;-69
2021/01/01 03:42:28;;;;;;;;;;;;;;;17.48;59.02;99825.69;5029551;28;1232;-70
2021/01/01 03:44:55;;;;;;;;;;;;;;;17.48;58.96;99836.22;5027789;28;1855;-68
2021/01/01 03:47:22;;;;;;;;;;;;;;;17.47;58.69;99839.84;5028401;28;1303;-68
2021/01/01 03:49:48;;;;;;;;;;;;;;;17.45;58.64;99828.53;5029630;28;1482;-68
2021/01/01 03:52:14;;;;;;;;;;;;;;;17.46;59.13;99828.44;5028922;28;1236;-68
2021/01/01 03:54:41;;;;;;;;;;;;;;;17.47;59.02;99821.41;5029353;28;923;-69
2021/01/01 03:57:07;;;;;;;;;;;;;;;17.45;59.02;99820.63;5028898;28;1248;-69
2021/01/01 03:59:33;;;;;;;;;;;;;;;17.44;59.14;99818.97;5029260;28;1201;-68
2021/01/01 04:01:59;;;;;;;;;;;;;;;17.39;59.06;99821.03;5028755;28;1331;-69
2021/01/01 04:04:25;;;;;;;;;;;;;;;17.40;58.96;99820.09;5029296;28;1076;-68
2021/01/01 04:06:51;;;;;;;;;;;;;;;17.42;59.09;99815.56;5028766;28;1346;-68
2021/01/01 04:09:18;;;;;;;;;;;;;;;17.39;59.17;99807.88;5029170;28;1035;-68
2021/01/01 04:11:44;;;;;;;;;;;;;;;17.39;59.00;99810.50;5028751;28;1258;-69
2021/01/01 04:14:10;;;;;;;;;;;;;;;17.41;59.34;99806.00;5011095;28;1169;-69
2021/01/01 04:16:42;;;;;;;;;;;;;;;17.41;59.11;99808.63;5010956;28;1756;-69
2021/01/01 04:19:08;;;;;;;;;;;;;;;17.37;59.04;99799.25;5010927;28;2368;-69
2021/01/01 04:21:34;;;;;;;;;;;;;;;17.40;58.89;99801.69;5028908;28;1228;-69
2021/01/01 04:24:01;;;;;;;;;;;;;;;17.37;59.11;99813.25;5028729;28;883;-69
2021/01/01 04:26:27;;;;;;;;;;;;;;;17.33;59.26;99809.13;5028786;28;1068;-69
2021/01/01 04:28:53;;;;;;;;;;;;;;;17.36;59.10;99805.44;5028999;28;1175;-69
2021/01/01 04:31:19;;;;;;;;;;;;;;;17.34;58.97;99807.34;5028570;28;834;-69
2021/01/01 04:33:45;;;;;;;;;;;;;;;17.32;59.07;99804.84;5028544;28;1243;-69
2021/01/01 04:36:12;;;;;;;;;;;;;;;17.30;59.05;99797.94;5027175;28;774;-69
2021/01/01 04:38:38;;;;;;;;;;;;;;;17.31;58.96;99797.03;5027154;28;1914;-69
2021/01/01 04:41:05;;;;;;;;;;;;;;;17.29;59.15;99805.03;5010622;28;1196;-70
2021/01/01 04:43:32;;;;;;;;;;;;;;;17.29;59.26;99799.78;5028938;28;1248;-69
2021/01/01 04:45:59;;;;;;;;;;;;;;;17.31;58.96;99797.03;5028424;28;787;-69
2021/01/01 04:48:25;;;;;;;;;;;;;;;17.28;58.91;99799.84;5028556;28;1380;-69
2021/01/01 04:50:52;;;;;;;;;;;;;;;17.27;58.91;99787.63;5028858;28;1131;-68
2021/01/01 04:53:20;;;;;;;;;;;;;;;17.26;59.15;99783.31;5010531;28;1609;-68
2021/01/01 04:55:47;;;;;;;;;;;;;;;17.25;59.11;99779.00;5028442;28;818;-68
2021/01/01 04:58:14;;;;;;;;;;;;;;;17.26;59.02;99783.31;5030703;28;1898;-68
2021/01/01 05:00:40;;;;;;;;;;;;;;;17.24;59.11;99778.16;5032032;28;917;-69
2021/01/01 05:03:06;;;;;;;;;;;;;;;17.25;59.51;99781.63;5031984;28;1229;-68
2021/01/01 05:05:32;;;;;;;;;;;;;;;17.16;59.17;99769.06;5032142;28;1127;-68
2021/01/01 05:07:58;;;;;;;;;;;;;;;17.22;59.03;99779.19;5032069;28;1232;-69
2021/01/01 05:10:25;;;;;;;;;;;;;;;17.24;59.16;99782.56;5032004;28;797;-68
2021/01/01 05:12:51;;;;;;;;;;;;;;;17.22;59.40;99773.94;5031897;28;1228;-69
2021/01/01 05:15:33;;;;;;;;;;;;;;;17.21;59.34;99774.88;5032010;28;960;-69
2021/01/01 05:17:59;;;;;;;;;;;;;;;17.20;59.13;99775.84;5031747;28;1906;-69
2021/01/01 05:20:28;;;;;;;;;;;;;;;17.21;59.12;99782.75;5032116;28;708;-69
2021/01/01 05:22:56;;;;;;;;;;;;;;;17.21;59.38;99785.41;5031773;28;1201;-69
2021/01/01 05:25:23;;;;;;;;;;;;;;;17.17;59.42;99778.66;5031803;28;815;-69
2021/01/01 05:27:57;;;;;;;;;;;;;;;17.18;59.07;99775.91;5013819;28;1240;-69
2021/01/01 05:30:31;;;;;;;;;;;;;;;17.15;59.16;99781.38;5031666;28;1087;-69
2021/01/01 05:32:58;;;;;;;;;;;;;;;17.15;59.28;99781.38;5031709;28;1327;-68
2021/01/01 05:35:27;;;;;;;;;;;;;;;17.13;59.01;99787.69;5031608;28;869;-69
2021/01/01 05:37:54;;;;;;;;;;;;;;;17.13;59.13;99793.81;5031434;28;1987;-69
2021/01/01 05:40:30;;;;;;;;;;;;;;;17.11;58.91;99790.44;5013878;28;846;-69
2021/01/01 05:43:16;;;;;;;;;;;;;;;17.12;59.21;99799.16;5031231;28;1233;-69
2021/01/01 05:45:42;;;;;;;;;;;;;;;17.12;59.11;99805.25;5031462;28;989;-69
2021/01/01 05:48:08;;;;;;;;;;;;;;;17.11;58.92;99802.75;5031268;28;1659;-69
2021/01/01 05:50:35;;;;;;;;;;;;;;;17.10;59.33;99809.78;5031258;28;1025;-69
2021/01/01 05:53:17;;;;;;;;;;;;;;;17.08;58.97;99803.78;5031237;28;1229;-68
2021/01/01 05:55:44;;;;;;;;;;;;;;;17.07;59.14;99803.88;5031246;28;865;-68
2021/01/01 05:58:18;;;;;;;;;;;;;;;17.08;59.10;99805.56;5012992;28;1906;-68
2021/01/01 06:00:44;;;;;;;;;;;;;;;17.07;59.21;99793.34;5031014;28;790;-68
2021/01/01 06:03:26;;;;;;;;;;;;;;;17.07;59.03;99807.34;5031115;28;1350;-68
2021/01/01 06:05:56;;;;;;;;;;;;;;;17.06;58.96;99797.75;5013320;28;845;-68
2021/01/01 06:08:28;;;;;;;;;;;;;;;17.03;58.97;99800.59;5030585;28;1228;-68
2021/01/01 06:11:03;;;;;;;;;;;;;;;17.06;59.06;99807.44;5030690;28;940;-68
2021/01/01 06:13:32;;;;;;;;;;;;;;;17.04;59.13;99804.94;5030961;28;1290;-68
2021/01/01 06:16:03;;;;;;;;;;;;;;;17.00;59.02;99800.78;5030914;28;775;-68
2021/01/01 06:18:31;;;;;;;;;;;;;;;17.02;58.78;99803.34;5030429;28;1977;-68
2021/01/01 06:21:05;;;;;;;;;;;;;;;17.01;58.93;99801.66;5012799;28;794;-68
2021/01/01 06:23:38;;;;;;;;;;;;;;;17.00;58.93;99792.06;5012659;28;1338;-68
2021/01/01 06:26:14;;;;;;;;;;;;;;;16.98;58.98;99801.84;5003160;28;1625;-68
2021/01/01 06:28:44;;;;;;;;;;;;;;;16.98;59.00;99788.69;5012986;28;1489;-68
2021/01/01 06:31:11;;;;;;;;;;;;;;;16.97;58.81;99787.84;5010821;28;830;-68
2021/01/01 06:33:42;;;;;;;;;;;;;;;16.95;59.00;99789.72;5010990;28;1223;-68
2021/01/01 06:36:08;;;;;;;;;;;;;;;16.95;58.78;99781.84;5010679;28;1100;-68
2021/01/01 06:38:39;;;;;;;;;;;;;;;16.95;58.87;99789.72;4993000;28;1915;-68
2021/01/01 06:41:10;;;;;;;;;;;;;;;16.94;59.06;99788.88;5010463;28;1119;-68
2021/01/01 06:43:50;;;;;;;;;;;;;;;16.94;58.70;99782.78;5010630;28;1396;-68
2021/01/01 06:46:30;;;;;;;;;;;;;;;16.93;58.66;99779.28;5009593;28;1145;-68
2021/01/01 06:48:57;;;;;;;;;;;;;;;16.91;59.01;99781.19;5010748;28;1454;-68
2021/01/01 06:51:23;;;;;;;;;;;;;;;16.89;58.49;99785.72;5010271;28;802;-68
2021/01/01 06:53:50;;;;;;;;;;;;;;;16.90;58.64;99790.00;5010286;28;1272;-68
2021/01/01 06:56:20;;;;;;;;;;;;;;;16.90;59.00;99797.09;5010388;28;783;-68
2021/01/01 06:58:46;;;;;;;;;;;;;;;16.88;58.49;99799.78;5010308;28;1993;-67
2021/01/01 07:01:16;;;;;;;;;;;;;;;16.89;58.67;99804.13;5010261;28;794;-68
2021/01/01 07:03:42;;;;;;;;;;;;;;;16.87;58.74;99800.72;5010292;28;1178;-68
2021/01/01 07:06:08;;;;;;;;;;;;;;;16.87;58.81;99808.63;5010062;28;838;-67
2021/01/01 07:08:44;;;;;;;;;;;;;;;16.86;58.50;99801.69;5010078;28;1269;-67
2021/01/01 07:11:13;;;;;;;;;;;;;;;16.85;58.91;99804.41;5009952;28;1080;-68
2021/01/01 07:13:46;;;;;;;;;;;;;;;16.84;58.57;99810.63;5010318;28;1231;-69
2021/01/01 07:16:13;;;;;;;;;;;;;;;16.84;58.74;99802.72;5010115;28;1032;-68
2021/01/01 07:18:39;;;;;;;;;;;;;;;16.83;58.68;99806.28;4991962;28;1919;-69
2021/01/01 07:21:07;;;;;;;;;;;;;;;16.82;58.64;99810.72;5009611;28;1268;-69
2021/01/01 07:23:33;;;;;;;;;;;;;;;16.80;58.56;99812.59;5009804;28;1235;-69
2021/01/01 07:26:00;;;;;;;;;;;;;;;16.81;58.56;99814.28;5009626;28;826;-68
2021/01/01 07:28:27;;;;;;;;;;;;;;;16.83;58.73;99811.56;5009752;28;1345;-69
2021/01/01 07:30:53;;;;;;;;;;;;;;;16.81;58.67;99814.28;5009665;28;1041;-69
2021/01/01 07:33:20;;;;;;;;;;;;;;;16.80;58.77;99812.59;5009680;28;1323;-69
2021/01/01 07:35:54;;;;;;;;;;;;;;;16.79;58.48;99813.53;5009611;28;795;-69
2021/01/01 07:38:20;;;;;;;;;;;;;;;16.78;58.85;99813.63;4991922;28;1999;-68
2021/01/01 07:40:47;;;;;;;;;;;;;;;16.78;58.72;99803.09;5009580;28;1115;-68
2021/01/01 07:43:13;;;;;;;;;;;;;;;16.75;58.42;99808.53;5009858;28;1229;-68
2021/01/01 07:45:39;;;;;;;;;;;;;;;16.69;58.81;99804.53;5009445;28;834;-69
2021/01/01 07:48:06;;;;;;;;;;;;;;;16.75;58.41;99809.41;4991506;28;1416;-69
2021/01/01 07:50:32;;;;;;;;;;;;;;;16.75;58.69;99814.66;4991779;28;751;-68
2021/01/01 07:53:17;;;;;;;;;;;;;;;16.74;58.76;99823.50;4991692;28;1335;-68
2021/01/01 07:55:43;;;;;;;;;;;;;;;16.73;58.73;99815.69;5009450;28;1139;-68
2021/01/01 07:58:13;;;;;;;;;;;;;;;16.72;58.76;99817.47;5009400;28;1986;-68
2021/01/01 08:00:40;;;;;;;;;;;;;;;16.71;58.67;99813.19;4991757;28;949;-68
2021/01/01 08:03:22;;;;;;;;;;;;;;;16.75;58.54;99808.53;4991637;28;1390;-71
2021/01/01 08:05:48;;;;;;;;;;;;;;;16.64;58.67;99811.88;4991743;28;764;-65
2021/01/01 08:08:16;;;;;;;;;;;;;;;16.71;58.66;99810.56;5006298;28;1619;-67
2021/01/01 08:10:44;;;;;;;;;;;;;;;16.75;58.71;99811.19;4993410;28;1159;-69
2021/01/01 08:13:20;;;;;;;;;;;;;;;16.75;59.01;99809.41;5027592;28;1236;-68
2021/01/01 08:16:10;;;;;;;;;;;;;;;16.77;58.69;99807.53;5015357;28;1392;-68
2021/01/01 08:18:36;;;;;;;;;;;;;;;16.76;58.90;99811.09;5007701;28;1976;-68
2021/01/01 08:21:03;;;;;;;;;;;;;;;16.74;58.73;99813.00;4989424;28;1233;-68
2021/01/01 08:23:48;;;;;;;;;;;;;;;16.77;58.80;99818.06;4976270;28;1372;-69
2021/01/01 08:26:15;;;;;;;;;;;;;;;16.75;58.55;99819.91;5027311;28;964;-69
2021/01/01 08:28:42;;;;;;;;;;;;;;;16.74;58.56;99817.41;5027449;28;1300;-68
2021/01/01 08:31:10;;;;;;;;;;;;;;;16.72;58.85;99820.09;5027584;28;886;-69
2021/01/01 08:33:41;;;;;;;;;;;;;;;16.74;58.72;99820.88;5030979;28;1311;-67
2021/01/01 08:36:08;;;;;;;;;;;;;;;16.71;58.50;99815.81;5031388;28;830;-68
2021/01/01 08:38:35;;;;;;;;;;;;;;;16.72;58.78;99816.63;5031306;28;1906;-67
2021/01/01 08:41:01;;;;;;;;;;;;;;;16.73;58.31;99821.81;5025309;28;1349;-68
2021/01/01 08:43:28;;;;;;;;;;;;;;;16.71;58.45;99807.94;5011513;28;1237;-68
2021/01/01 08:45:54;;;;;;;;;;;;;;;16.71;59.05;99807.06;5011391;28;778;-69
2021/01/01 08:48:21;;;;;;;;;;;;;;;16.70;58.86;99806.22;5011538;28;1359;-69
2021/01/01 08:50:49;;;;;;;;;;;;;;;16.70;58.88;99814.13;4993712;28;855;-68
2021/01/01 08:53:16;;;;;;;;;;;;;;;16.70;58.53;99810.63;5011266;28;1221;-67
2021/01/01 08:55:42;;;;;;;;;;;;;;;16.70;58.62;99805.38;4993550;28;1008;-68
2021/01/01 08:58:10;;;;;;;;;;;;;;;16.69;58.73;99806.31;5009504;28;1914;-68
2021/01/01 09:00:37;;;;;;;;;;;;;;;16.71;58.54;99809.69;5011609;28;838;-68
2021/01/01 09:03:04;;;;;;;;;;;;;;;16.67;58.80;99816.94;4993516;28;1296;-68
2021/01/01 09:05:30;;;;;;;;;;;;;;;16.67;58.74;99810.81;5011310;28;822;-67
2021/01/01 09:08:09;;;;;;;;;;;;;;;16.67;58.70;99819.56;5011180;28;1213;-69
2021/01/01 09:10:43;;;;;;;;;;;;;;;16.67;58.69;99822.19;4993145;28;815;-69
2021/01/01 09:13:30;;;;;;;;;;;;;;;16.66;58.52;99824.91;5011080;28;1249;-68
2021/01/01 09:16:01;;;;;;;;;;;;;;;16.66;58.96;99827.53;5023362;28;1211;-69
2021/01/01 09:18:28;;;;;;;;;;;;;;;16.68;58.59;99826.53;5030437;28;1902;-70
2021/01/01 09:21:09;;;;;;;;;;;;;;;16.65;58.67;99831.13;5030365;28;1155;-70
2021/01/01 09:23:36;;;;;;;;;;;;;;;16.67;59.09;99832.72;5012998;28;1232;-71
2021/01/01 09:26:02;;;;;;;;;;;;;;;16.64;58.86;99843.41;5011485;28;1350;-70
2021/01/01 09:29:02;;;;;;;;;;;;;;;16.65;58.91;99839.88;4989162;28;1327;-72
2021/01/01 09:31:29;;;;;;;;;;;;;;;16.73;59.48;99849.88;5029509;28;1516;-71
2021/01/01 09:34:07;;;;;;;;;;;;;;;16.79;59.46;99849.50;5009278;28;1011;-73
2021/01/01 09:36:37;;;;;;;;;;;;;;;16.99;58.72;99850.88;4992553;28;1342;-70
2021/01/01 09:39:07;;;;;;;;;;;;;;;17.12;58.76;99854.41;5010326;28;2031;-71
2021/01/01 09:41:35;;;;;;;;;;;;;;;17.31;58.46;99855.78;5012220;28;1293;-71
2021/01/01 09:44:01;;;;;;;;;;;;;;;17.39;58.19;99856.13;5011542;28;1030;-70
2021/01/01 09:46:28;;;;;;;;;;;;;;;17.54;57.89;99851.63;5010346;28;1718;-70
2021/01/01 09:48:54;;;;;;;;;;;;;;;17.71;57.53;99846.16;5011884;28;1451;-73
2021/01/01 09:51:21;;;;;;;;;;;;;;;17.79;57.43;99850.88;5011737;28;917;-72
2021/01/01 09:53:47;;;;;;;;;;;;;;;17.80;57.31;99858.69;4993855;28;1330;-71
2021/01/01 09:56:13;;;;;;;;;;;;;;;17.80;57.37;99853.44;5012151;28;1591;-71
2021/01/01 09:58:41;;;;;;;;;;;;;;;18.00;57.04;99855.56;5011381;28;1942;-67
2021/01/01 10:01:08;;;;;;;;;;;;;;;17.94;57.32;99853.34;5008523;28;1513;-69
2021/01/01 10:03:34;;;;;;;;;;;;;;;17.95;57.25;99862.09;5011010;28;1227;-69
2021/01/01 10:06:00;;;;;;;;;;;;;;;17.95;57.38;99847.13;4993531;28;1437;-70
2021/01/01 10:08:27;;;;;;;;;;;;;;;18.00;57.50;99855.56;5014792;28;1795;-67
2021/01/01 10:10:55;;;;;;;;;;;;;;;18.03;57.50;99862.41;5015164;28;1180;-66
2021/01/01 10:13:23;;;;;;;;;;;;;;;18.01;57.40;99857.25;5003543;28;1213;-66
2021/01/01 10:15:49;;;;;;;;;;;;;;;18.00;57.60;99850.28;4980036;28;1243;-68
2021/01/01 10:18:15;;;;;;;;;;;;;;;18.02;57.36;99844.94;5010005;28;1918;-65
2021/01/01 10:20:42;;;;;;;;;;;;;;;18.03;57.45;99846.59;4992552;28;1289;-66
2021/01/01 10:23:09;;;;;;;;;;;;;;;18.12;57.91;99851.25;4991702;28;1585;-66
2021/01/01 10:25:35;;;;;;;;;;;;;;;18.20;57.31;99840.19;5028400;28;1206;-70
2021/01/01 10:28:01;;;;;;;;;;;;;;;18.15;57.40;99837.84;5011637;28;1248;-68
2021/01/01 10:30:27;;;;;;;;;;;;;;;18.23;57.50;99839.97;5029894;28;989;-68
2021/01/01 10:32:55;;;;;;;;;;;;;;;18.25;57.47;99840.72;5029493;28;1239;-68
2021/01/01 10:35:21;;;;;;;;;;;;;;;18.20;57.66;99830.50;5002224;28;1592;-69
2021/01/01 10:37:51;;;;;;;;;;;;;;;18.10;57.74;99829.44;4990726;28;1318;-67
2021/01/01 10:40:18;;;;;;;;;;;;;;;18.14;57.53;99835.34;5009156;28;1656;-68
2021/01/01 10:42:46;;;;;;;;;;;;;;;18.10;57.65;99826.78;5009601;28;1416;-69
2021/01/01 10:45:27;;;;;;;;;;;;;;;18.05;58.15;99826.28;5008506;28;1512;-71
2021/01/01 10:47:53;;;;;;;;;;;;;;;18.10;58.03;99829.44;4991007;28;1604;-69
2021/01/01 10:50:20;;;;;;;;;;;;;;;18.19;57.82;99818.25;5009182;28;763;-69
2021/01/01 10:52:47;;;;;;;;;;;;;;;18.39;57.38;99819.53;5007288;28;1332;-72
2021/01/01 10:55:13;;;;;;;;;;;;;;;18.43;57.29;99810.44;4992829;28;1535;-70
2021/01/01 10:57:39;;;;;;;;;;;;;;;18.41;57.20;99807.06;4991570;28;1272;-69
2021/01/01 11:00:06;;;;;;;;;;;;;;;18.37;57.76;99808.22;4991154;28;1910;-70
2021/01/01 11:02:32;;;;;;;;;;;;;;;18.44;57.42;99806.84;4991386;28;1229;-68
2021/01/01 11:04:58;;;;;;;;;;;;;;;18.45;57.45;99798.81;5009265;28;1148;-68
2021/01/01 11:07:25;;;;;;;;;;;;;;;18.39;57.40;99798.44;5008296;28;1323;-68
2021/01/01 11:09:51;;;;;;;;;;;;;;;18.37;57.44;99800.31;5008889;28;937;-69
2021/01/01 11:12:17;;;;;;;;;;;;;;;18.36;57.77;99796.00;5008503;28;1602;-70
2021/01/01 12:26:29;;;;;;;;;;;;;;;18.55;57.04;99680.38;4978137;28;1260;-71
2021/01/01 12:29:01;;;;;;;;;;;;;;;18.52;56.94;99683.22;5009223;28;1036;-73
2021/01/01 12:31:29;;;;;;;;;;;;;;;18.53;57.04;99675.22;4974818;28;1164;-73
2021/01/01 12:33:56;;;;;;;;;;;;;;;18.55;57.17;99685.66;5009009;28;1110;-75
2021/01/01 12:36:23;;;;;;;;;;;;;;;18.57;57.15;99675.84;5008833;28;1037;-71
2021/01/01 12:38:49;;;;;;;;;;;;;;;18.71;56.89;99667.75;4991111;28;1973;-75
2021/01/01 12:41:16;;;;;;;;;;;;;;;18.66;56.92;99662.00;4988012;28;1494;-73
2021/01/01 12:43:42;;;;;;;;;;;;;;;18.71;57.10;99673.03;5008062;28;1309;-73
2021/01/01 12:46:10;;;;;;;;;;;;;;;18.67;57.12;99676.00;4990195;28;1307;-73
2021/01/01 12:48:37;;;;;;;;;;;;;;;18.66;57.30;99669.91;4990605;28;1657;-73
2021/01/01 12:51:03;;;;;;;;;;;;;;;18.63;57.49;99664.00;5007829;28;836;-73
2021/01/01 12:53:29;;;;;;;;;;;;;;;18.76;57.52;99670.88;5008569;28;1225;-71
2021/01/01 12:55:55;;;;;;;;;;;;;;;18.73;57.94;99654.44;5007978;28;744;-71
2021/01/01 12:58:22;;;;;;;;;;;;;;;18.61;57.85;99658.81;5008084;28;1973;-73
2021/01/01 13:00:48;;;;;;;;;;;;;;;18.67;57.37;99655.75;5008743;28;797;-71
2021/01/01 13:03:14;;;;;;;;;;;;;;;18.63;56.53;99658.72;4990740;28;1295;-70
2021/01/01 13:05:40;;;;;;;;;;;;;;;18.58;56.35;99677.50;4991154;28;783;-72
2021/01/01 13:08:08;;;;;;;;;;;;;;;18.66;57.49;99675.19;5008332;28;1336;-70
2021/01/01 13:10:34;;;;;;;;;;;;;;;18.67;58.64;99676.84;5008683;28;803;-70
2021/01/01 13:13:00;;;;;;;;;;;;;;;18.69;58.71;99684.66;4991080;28;1228;-69
2021/01/01 13:15:27;;;;;;;;;;;;;;;18.74;58.66;99680.72;4991400;28;736;-71
2021/01/01 13:17:53;;;;;;;;;;;;;;;18.72;58.60;99685.28;4990159;28;1203;-70
2021/01/01 13:20:19;;;;;;;;;;;;;;;18.76;58.63;99675.31;5012118;28;1983;-71
2021/01/01 13:22:45;;;;;;;;;;;;;;;18.76;58.59;99676.16;5012050;28;1319;-69
2021/01/01 13:25:15;;;;;;;;;;;;;;;18.75;58.52;99674.50;5012070;28;775;-74
2021/01/01 13:27:43;;;;;;;;;;;;;;;18.80;58.68;99676.78;5012188;28;1316;-68
2021/01/01 13:30:09;;;;;;;;;;;;;;;18.70;58.35;99684.53;5012244;28;783;-68
2021/01/01 13:32:36;;;;;;;;;;;;;;;18.76;58.64;99686.72;5009608;28;1309;-66
2021/01/01 13:35:03;;;;;;;;;;;;;;;18.77;58.53;99690.19;5010608;28;1333;-68
2021/01/01 13:37:30;;;;;;;;;;;;;;;18.59;58.59;99687.13;4992887;28;1355;-68
2021/01/01 13:39:56;;;;;;;;;;;;;;;18.49;58.98;99684.31;5011126;28;1903;-68
2021/01/01 13:42:23;;;;;;;;;;;;;;;18.41;59.13;99688.41;5010637;28;1269;-68
2021/01/01 13:44:49;;;;;;;;;;;;;;;18.34;58.91;99688.00;5011162;28;1338;-68
2021/01/01 13:47:15;;;;;;;;;;;;;;;18.28;59.01;99688.44;5010247;28;1339;-69
2021/01/01 13:49:42;;;;;;;;;;;;;;;18.28;59.04;99695.50;5010764;28;1332;-69
2021/01/01 13:52:08;;;;;;;;;;;;;;;18.28;59.12;99695.50;5010512;28;1362;-68
2021/01/01 13:54:34;;;;;;;;;;;;;;;18.26;59.14;99695.63;5010879;28;1243;-70
2021/01/01 13:57:01;;;;;;;;;;;;;;;18.25;59.24;99687.81;4992351;28;1323;-70
2021/01/01 13:59:27;;;;;;;;;;;;;;;18.26;59.15;99692.16;5010356;28;1989;-69
2021/01/01 14:01:54;;;;;;;;;;;;;;;18.27;59.09;99704.38;5010124;28;1380;-68
2021/01/01 14:04:24;;;;;;;;;;;;;;;18.25;59.10;99701.00;4976764;28;1283;-68
2021/01/01 14:06:51;;;;;;;;;;;;;;;18.25;58.95;99704.47;5007501;28;1273;-68
2021/01/01 14:09:18;;;;;;;;;;;;;;;18.27;59.05;99709.66;5008778;28;1282;-72
2021/01/01 14:11:47;;;;;;;;;;;;;;;18.31;58.78;99705.84;4976728;28;1296;-69
2021/01/01 14:14:14;;;;;;;;;;;;;;;18.32;58.72;99703.09;4992744;28;1243;-70
2021/01/01 14:16:45;;;;;;;;;;;;;;;18.34;58.68;99710.88;4992149;28;1370;-69
2021/01/01 14:19:12;;;;;;;;;;;;;;;18.35;58.64;99709.94;4989903;28;1977;-69
2021/01/01 14:21:39;;;;;;;;;;;;;;;18.38;58.51;99715.00;5010071;28;1305;-70
2021/01/01 14:24:05;;;;;;;;;;;;;;;18.41;58.41;99717.41;4992309;28;1239;-69
2021/01/01 14:26:33;;;;;;;;;;;;;;;18.41;58.61;99717.41;5010238;28;1366;-68
2021/01/01 14:29:00;;;;;;;;;;;;;;;18.42;58.59;99713.84;5010317;28;1068;-70
2021/01/01 14:31:26;;;;;;;;;;;;;;;18.70;58.13;99718.81;5007053;28;1325;-68
2021/01/01 14:33:52;;;;;;;;;;;;;;;18.71;58.00;99719.66;5007320;28;1767;-69
2021/01/01 14:36:18;;;;;;;;;;;;;;;18.68;58.09;99718.09;5008708;28;1360;-71
2021/01/01 14:38:45;;;;;;;;;;;;;;;18.68;58.12;99720.75;5008140;28;1946;-68
2021/01/01 14:41:15;;;;;;;;;;;;;;;18.69;58.11;99717.16;5008454;28;1397;-71
2021/01/01 14:43:42;;;;;;;;;;;;;;;18.72;57.98;99721.38;4991010;28;1300;-69
2021/01/01 14:46:08;;;;;;;;;;;;;;;18.77;58.02;99727.13;5007001;28;1243;-71
2021/01/01 14:48:34;;;;;;;;;;;;;;;18.76;57.89;99731.56;5008787;28;1654;-70
2021/01/01 14:51:00;;;;;;;;;;;;;;;18.75;57.88;99727.25;5008381;28;1352;-70
2021/01/01 14:53:27;;;;;;;;;;;;;;;18.75;57.89;99732.53;5008243;28;1351;-69
2021/01/01 14:55:53;;;;;;;;;;;;;;;18.75;57.95;99731.69;5008544;28;1048;-68
2021/01/01 14:58:19;;;;;;;;;;;;;;;18.74;57.78;99732.63;5008937;28;2053;-67
2021/01/01 15:00:46;;;;;;;;;;;;;;;18.72;57.97;99731.91;5008552;28;1235;-69
2021/01/01 15:03:13;;;;;;;;;;;;;;;18.70;57.87;99737.28;5008530;28;1256;-70
2021/01/01 15:05:39;;;;;;;;;;;;;;;18.66;57.97;99735.84;5008254;28;1060;-70